createdAt,value
2022-07-26T00:01:50.109Z,4.35
2022-07-26T00:04:17.887Z,3.95
2022-07-26T00:06:45.802Z,3.65
2022-07-26T00:09:13.464Z,4.03
2022-07-26T00:11:41.181Z,4.18
2022-07-26T00:14:09.214Z,4.20
2022-07-26T00:16:38.303Z,4.10
2022-07-26T00:19:08.679Z,4.37
2022-07-26T00:21:40.680Z,4.25
2022-07-26T00:24:09.457Z,4.40
2022-07-26T00:26:37.623Z,4.07
2022-07-26T00:29:07.030Z,4.20
2022-07-26T00:31:35.147Z,4.95
2022-07-26T00:34:02.865Z,4.22
2022-07-26T00:36:30.896Z,3.85
2022-07-26T00:38:58.579Z,4.05
2022-07-26T00:41:26.263Z,3.15
2022-07-26T00:43:59.280Z,3.40
2022-07-26T00:46:27.973Z,3.20
2022-07-26T00:48:55.861Z,2.83
2022-07-26T00:51:24.236Z,3.00
2022-07-26T00:53:52.193Z,3.15
2022-07-26T00:56:20.000Z,3.05
2022-07-26T00:58:47.741Z,3.03
2022-07-26T01:01:15.596Z,2.60
2022-07-26T01:03:43.378Z,2.83
2022-07-26T01:06:11.203Z,3.00
2022-07-26T01:08:39.271Z,3.40
2022-07-26T01:11:07.041Z,3.00
2022-07-26T01:13:35.769Z,2.87
2022-07-26T01:16:04.331Z,2.50
2022-07-26T01:18:32.159Z,2.47
2022-07-26T01:21:13.256Z,2.55
2022-07-26T01:23:41.654Z,2.28
2022-07-26T01:26:09.728Z,2.55
2022-07-26T01:28:40.227Z,2.50
2022-07-26T01:31:09.647Z,2.67
2022-07-26T01:33:37.432Z,2.75
2022-07-26T01:36:05.291Z,2.90
2022-07-26T01:38:32.913Z,2.15
2022-07-26T01:41:00.679Z,2.47
2022-07-26T01:43:28.348Z,2.72
2022-07-26T01:45:56.681Z,2.40
2022-07-26T01:48:24.410Z,2.55
2022-07-26T01:50:52.104Z,2.08
2022-07-26T01:53:19.874Z,2.65
2022-07-26T01:55:47.583Z,2.87
2022-07-26T01:58:15.359Z,2.65
2022-07-26T02:00:43.222Z,2.65
2022-07-26T02:03:11.054Z,2.60
2022-07-26T02:05:38.764Z,2.40
2022-07-26T02:08:06.917Z,2.50
2022-07-26T02:10:53.551Z,2.30
2022-07-26T02:13:22.814Z,2.60
2022-07-26T02:15:50.611Z,2.42
2022-07-26T02:18:18.394Z,2.53
2022-07-26T02:20:46.077Z,2.60
2022-07-26T02:23:14.138Z,2.33
2022-07-26T02:25:41.861Z,2.40
2022-07-26T02:28:09.567Z,2.22
2022-07-26T02:30:37.362Z,2.28
2022-07-26T02:33:07.163Z,2.55
2022-07-26T02:35:34.971Z,2.70
2022-07-26T02:38:06.283Z,2.53
2022-07-26T02:40:34.801Z,2.53
2022-07-26T02:43:02.769Z,2.70
2022-07-26T02:45:30.530Z,2.50
2022-07-26T02:47:58.334Z,2.47
2022-07-26T02:50:27.995Z,2.87
2022-07-26T02:52:56.147Z,3.00
2022-07-26T02:55:26.615Z,2.60
2022-07-26T02:57:54.486Z,2.50
2022-07-26T03:00:27.032Z,3.10
2022-07-26T03:02:54.875Z,3.00
2022-07-26T03:05:22.682Z,2.78
2022-07-26T03:07:50.539Z,2.60
2022-07-26T03:10:18.243Z,2.67
2022-07-26T03:12:45.956Z,2.15
2022-07-26T03:15:13.860Z,2.45
2022-07-26T03:17:41.549Z,2.30
2022-07-26T03:20:10.126Z,2.97
2022-07-26T03:22:37.815Z,3.37
2022-07-26T03:25:06.522Z,2.83
2022-07-26T03:27:34.488Z,3.22
2022-07-26T03:30:02.410Z,3.10
2022-07-26T03:32:30.153Z,3.40
2022-07-26T03:34:57.801Z,3.30
2022-07-26T03:37:25.638Z,3.15
2022-07-26T03:40:13.466Z,3.37
2022-07-26T03:42:41.134Z,3.53
2022-07-26T03:45:10.333Z,3.53
2022-07-26T03:47:38.419Z,3.40
2022-07-26T03:50:07.441Z,3.53
2022-07-26T03:52:35.192Z,3.62
2022-07-26T03:55:22.839Z,3.70
2022-07-26T03:57:50.563Z,2.95
2022-07-26T04:00:18.482Z,2.90
2022-07-26T04:02:46.252Z,3.30
2022-07-26T04:05:14.061Z,2.92
2022-07-26T04:07:52.546Z,2.33
2022-07-26T04:10:22.585Z,3.12
2022-07-26T04:12:53.164Z,2.80
2022-07-26T04:15:22.316Z,2.58
2022-07-26T04:17:50.176Z,2.85
2022-07-26T04:20:18.493Z,2.33
2022-07-26T04:22:46.346Z,2.75
2022-07-26T04:25:14.135Z,2.78
2022-07-26T04:27:41.814Z,2.78
2022-07-26T04:30:14.787Z,2.92
2022-07-26T04:32:43.215Z,2.60
2022-07-26T04:35:13.570Z,2.97
2022-07-26T04:37:45.459Z,2.55
2022-07-26T04:40:21.236Z,2.75
2022-07-26T04:42:51.033Z,2.42
2022-07-26T04:45:19.563Z,2.40
2022-07-26T04:47:52.338Z,1.90
2022-07-26T04:50:21.792Z,1.95
2022-07-26T04:52:50.463Z,2.20
2022-07-26T04:55:19.115Z,2.10
2022-07-26T04:57:47.794Z,1.75
2022-07-26T05:00:23.310Z,1.77
2022-07-26T05:02:54.393Z,1.62
2022-07-26T05:05:23.382Z,1.90
2022-07-26T05:07:54.354Z,1.80
2022-07-26T05:10:22.850Z,1.70
2022-07-26T05:12:50.636Z,1.60
2022-07-26T05:15:18.816Z,1.60
2022-07-26T05:17:46.633Z,1.55
2022-07-26T05:20:17.350Z,1.58
2022-07-26T05:22:45.388Z,1.50
2022-07-26T05:25:13.087Z,1.73
2022-07-26T05:27:42.724Z,1.92
2022-07-26T05:30:11.832Z,1.70
2022-07-26T05:32:40.067Z,1.52
2022-07-26T05:35:08.867Z,1.40
2022-07-26T05:37:37.271Z,1.30
2022-07-26T05:40:06.573Z,1.40
2022-07-26T05:42:34.298Z,1.40
2022-07-26T05:45:01.999Z,1.60
2022-07-26T05:47:31.166Z,1.73
2022-07-26T05:49:58.943Z,1.65
2022-07-26T05:52:26.710Z,1.50
2022-07-26T05:54:54.351Z,1.60
2022-07-26T05:57:22.052Z,1.65
2022-07-26T05:59:49.768Z,1.90
2022-07-26T06:02:17.492Z,1.60
2022-07-26T06:04:45.303Z,1.65
2022-07-26T06:07:15.423Z,1.73
2022-07-26T06:09:43.475Z,1.73
2022-07-26T06:12:11.426Z,2.10
2022-07-26T06:14:39.306Z,1.95
2022-07-26T06:17:07.039Z,1.70
2022-07-26T06:19:35.080Z,1.70
2022-07-26T06:22:02.818Z,2.03
2022-07-26T06:24:30.989Z,1.92
2022-07-26T06:27:04.768Z,1.87
2022-07-26T06:29:33.203Z,2.60
2022-07-26T06:32:01.110Z,1.80
2022-07-26T06:34:29.165Z,2.00
2022-07-26T06:36:57.032Z,2.22
2022-07-26T06:39:24.709Z,2.28
2022-07-26T06:41:52.473Z,2.40
2022-07-26T06:44:20.170Z,2.35
2022-07-26T06:46:47.857Z,2.20
2022-07-26T06:49:19.413Z,2.55
2022-07-26T06:51:49.701Z,2.20
2022-07-26T06:54:17.426Z,2.03
2022-07-26T06:56:45.671Z,2.03
2022-07-26T06:59:13.397Z,2.17
2022-07-26T07:01:57.956Z,2.20
2022-07-26T07:04:31.659Z,2.30
2022-07-26T07:07:05.771Z,2.78
2022-07-26T07:09:34.994Z,2.17
2022-07-26T07:12:10.465Z,2.20
2022-07-26T07:14:39.508Z,2.50
2022-07-26T07:17:11.159Z,2.05
2022-07-26T07:19:40.913Z,1.98
2022-07-26T07:22:12.829Z,2.17
2022-07-26T07:24:41.010Z,1.90
2022-07-26T07:27:09.190Z,1.90
2022-07-26T07:29:38.983Z,2.17
2022-07-26T07:32:09.298Z,2.10
2022-07-26T07:34:47.551Z,1.77
2022-07-26T07:37:15.855Z,1.90
2022-07-26T07:39:43.697Z,2.00
2022-07-26T07:42:11.387Z,1.95
2022-07-26T07:44:39.083Z,1.70
2022-07-26T07:47:07.430Z,1.62
2022-07-26T07:49:35.325Z,1.60
2022-07-26T07:52:03.054Z,1.70
2022-07-26T07:54:30.877Z,1.80
2022-07-26T07:57:00.005Z,1.37
2022-07-26T07:59:28.448Z,1.60
2022-07-26T08:01:56.870Z,1.70
2022-07-26T08:04:25.025Z,1.77
2022-07-26T08:06:52.826Z,1.83
2022-07-26T08:09:21.233Z,1.27
2022-07-26T08:11:50.770Z,1.50
2022-07-26T08:14:20.058Z,1.70
2022-07-26T08:16:48.088Z,1.62
2022-07-26T08:19:16.362Z,1.50
2022-07-26T08:21:47.133Z,1.40
2022-07-26T08:24:14.979Z,1.45
2022-07-26T08:26:42.696Z,1.45
2022-07-26T08:29:10.606Z,1.80
2022-07-26T08:31:38.710Z,1.15
2022-07-26T08:34:06.488Z,1.62
2022-07-26T08:36:34.184Z,1.73
2022-07-26T08:39:02.630Z,1.62
2022-07-26T08:41:31.653Z,1.67
2022-07-26T08:44:09.894Z,1.37
2022-07-26T08:46:40.255Z,1.60
2022-07-26T08:49:11.292Z,1.60
2022-07-26T08:51:45.082Z,1.20
2022-07-26T08:54:15.451Z,1.70
2022-07-26T08:56:51.119Z,1.50
2022-07-26T08:59:22.373Z,2.03
2022-07-26T09:01:55.408Z,1.95
2022-07-26T09:04:32.709Z,1.62
2022-07-26T09:07:10.288Z,1.60
2022-07-26T09:09:40.835Z,1.60
2022-07-26T09:12:17.685Z,1.83
2022-07-26T09:14:48.131Z,1.58
2022-07-26T09:17:21.216Z,1.77
2022-07-26T09:20:08.704Z,2.17
2022-07-26T09:22:37.773Z,1.52
2022-07-26T09:25:21.841Z,1.73
2022-07-26T09:27:50.036Z,1.50
2022-07-26T09:30:17.939Z,1.75
2022-07-26T09:33:01.065Z,1.42
2022-07-26T09:35:50.489Z,1.80
2022-07-26T09:38:17.853Z,1.35
2022-07-26T09:40:47.324Z,1.90
2022-07-26T09:43:23.794Z,1.60
2022-07-26T09:46:06.138Z,1.42
2022-07-26T09:48:59.401Z,1.85
2022-07-26T09:51:40.135Z,1.62
2022-07-26T09:54:09.004Z,1.98
2022-07-26T09:57:03.708Z,1.45
2022-07-26T09:59:31.867Z,1.60
2022-07-26T10:02:00.961Z,1.50
2022-07-26T10:04:28.830Z,1.62
2022-07-26T10:06:59.288Z,1.60
2022-07-26T10:09:41.475Z,1.75
2022-07-26T10:12:13.791Z,1.73
2022-07-26T10:14:49.013Z,1.58
2022-07-26T10:17:35.285Z,1.33
2022-07-26T10:20:17.660Z,1.80
2022-07-26T10:22:51.598Z,1.62
2022-07-26T10:25:19.436Z,1.75
2022-07-26T10:27:49.655Z,1.48
2022-07-26T10:30:17.241Z,1.67
2022-07-26T10:33:03.087Z,1.60
2022-07-26T10:35:45.607Z,2.00
2022-07-26T10:38:23.874Z,1.77
2022-07-26T10:41:03.671Z,1.55
2022-07-26T10:43:41.050Z,1.85
2022-07-26T10:46:21.556Z,1.80
2022-07-26T10:49:00.366Z,1.70
2022-07-26T10:51:30.619Z,1.80
2022-07-26T10:54:07.873Z,1.40
2022-07-26T10:56:36.271Z,1.50
2022-07-26T10:59:05.277Z,1.73
2022-07-26T11:01:38.584Z,1.80
2022-07-26T11:04:20.488Z,1.73
2022-07-26T11:06:48.239Z,1.90
2022-07-26T11:09:17.087Z,1.80
2022-07-26T11:11:47.127Z,1.67
2022-07-26T11:14:18.180Z,1.30
2022-07-26T11:16:51.064Z,1.50
2022-07-26T11:19:21.404Z,1.73
2022-07-26T11:21:59.998Z,1.42
2022-07-26T11:24:28.680Z,1.55
2022-07-26T11:26:57.549Z,2.28
2022-07-26T11:29:38.188Z,1.62
2022-07-26T11:32:17.745Z,1.40
2022-07-26T11:34:46.510Z,1.87
2022-07-26T11:37:15.133Z,2.22
2022-07-26T11:39:42.851Z,1.73
2022-07-26T11:42:13.183Z,2.12
2022-07-26T11:44:45.612Z,1.48
2022-07-26T11:47:25.231Z,1.80
2022-07-26T11:52:41.269Z,1.83
2022-07-26T11:55:09.913Z,2.08
2022-07-26T11:57:37.687Z,1.90
2022-07-26T12:00:06.472Z,1.90
2022-07-26T12:02:34.291Z,1.98
2022-07-26T12:05:23.376Z,2.03
2022-07-26T12:08:05.965Z,1.98
2022-07-26T12:10:33.990Z,1.70
2022-07-26T12:13:16.138Z,2.00
2022-07-26T12:15:53.047Z,2.10
2022-07-26T12:18:31.949Z,1.92
2022-07-26T12:21:07.527Z,1.60
2022-07-26T12:23:56.132Z,1.75
2022-07-26T12:26:29.345Z,1.92
2022-07-26T12:28:58.287Z,2.15
2022-07-26T12:31:30.856Z,1.85
2022-07-26T12:33:59.783Z,1.70
2022-07-26T12:36:30.065Z,2.20
2022-07-26T12:39:00.983Z,1.58
2022-07-26T12:41:37.295Z,1.75
2022-07-26T12:44:07.348Z,1.50
2022-07-26T12:46:37.070Z,1.60
2022-07-26T12:49:05.745Z,1.58
2022-07-26T12:51:34.406Z,1.50
2022-07-26T12:54:02.200Z,1.73
2022-07-26T12:56:30.005Z,1.70
2022-07-26T12:59:02.183Z,1.30
2022-07-26T13:01:31.319Z,1.65
2022-07-26T13:03:59.295Z,1.58
2022-07-26T13:06:27.056Z,1.80
2022-07-26T13:08:54.760Z,1.65
2022-07-26T13:11:22.445Z,1.70
2022-07-26T13:13:50.694Z,1.50
2022-07-26T13:16:18.503Z,1.67
2022-07-26T13:18:47.173Z,1.83
2022-07-26T13:21:14.904Z,1.58
2022-07-26T13:23:42.688Z,1.70
2022-07-26T13:26:10.729Z,1.77
2022-07-26T13:28:38.756Z,1.45
2022-07-26T13:31:07.212Z,1.55
2022-07-26T13:33:35.027Z,1.70
2022-07-26T13:36:02.824Z,1.60
2022-07-26T13:38:34.531Z,1.45
2022-07-26T13:41:06.159Z,1.60
2022-07-26T13:43:33.919Z,1.60
2022-07-26T13:46:01.807Z,1.92
2022-07-26T13:48:30.081Z,1.58
2022-07-26T13:50:58.735Z,1.92
2022-07-26T13:53:26.992Z,1.70
2022-07-26T13:55:54.731Z,1.45
2022-07-26T13:58:22.955Z,1.80
2022-07-26T14:00:50.746Z,2.12
2022-07-26T14:03:18.583Z,1.75
2022-07-26T14:05:46.438Z,1.87
2022-07-26T14:08:14.218Z,1.62
2022-07-26T14:10:42.433Z,1.73
2022-07-26T14:13:10.538Z,1.80
2022-07-26T14:15:38.280Z,1.77
2022-07-26T14:18:06.022Z,1.92
2022-07-26T14:20:33.900Z,1.62
2022-07-26T14:23:01.730Z,1.48
2022-07-26T14:25:29.817Z,1.40
2022-07-26T14:28:01.201Z,1.65
2022-07-26T14:30:28.965Z,1.73
2022-07-26T14:32:56.710Z,2.03
2022-07-26T14:35:24.406Z,1.87
2022-07-26T14:37:52.152Z,1.60
2022-07-26T14:40:19.929Z,1.65
2022-07-26T14:42:47.690Z,1.80
2022-07-26T14:45:16.183Z,1.60
2022-07-26T14:47:44.335Z,1.83
2022-07-26T14:50:13.662Z,1.62
2022-07-26T14:52:45.000Z,1.95
2022-07-26T14:55:13.495Z,1.50
2022-07-26T14:57:42.720Z,1.83
2022-07-26T15:00:12.955Z,1.37
2022-07-26T15:02:46.067Z,2.00
2022-07-26T15:05:15.610Z,1.98
2022-07-26T15:07:44.298Z,1.83
2022-07-26T15:10:14.348Z,1.73
2022-07-26T15:12:43.515Z,1.60
2022-07-26T15:15:12.080Z,1.60
2022-07-26T15:17:39.787Z,1.60
2022-07-26T15:20:08.366Z,1.60
2022-07-26T15:22:36.272Z,1.60
2022-07-26T15:25:04.561Z,1.98
2022-07-26T15:27:32.382Z,1.80
2022-07-26T15:30:04.263Z,2.08
2022-07-26T15:32:33.649Z,1.80
2022-07-26T15:35:01.711Z,1.92
2022-07-26T15:37:29.953Z,1.62
2022-07-26T15:39:58.056Z,1.60
2022-07-26T15:42:25.796Z,1.50
2022-07-26T15:44:53.501Z,1.90
2022-07-26T15:47:52.195Z,1.50
2022-07-26T15:50:11.439Z,1.90
2022-07-26T15:52:41.169Z,1.50
2022-07-26T15:55:10.117Z,1.60
2022-07-26T15:57:37.905Z,1.58
2022-07-26T16:00:10.938Z,2.37
2022-07-26T16:02:41.103Z,2.10
2022-07-26T16:05:09.367Z,1.60
2022-07-26T16:07:37.110Z,1.60
2022-07-26T16:10:05.641Z,1.50
2022-07-26T16:12:34.237Z,1.65
2022-07-26T16:15:02.146Z,2.08
2022-07-26T16:17:29.915Z,1.75
2022-07-26T16:19:57.610Z,1.95
2022-07-26T16:22:25.460Z,1.52
2022-07-26T16:24:53.237Z,1.80
2022-07-26T16:27:20.991Z,1.50
2022-07-26T16:29:52.124Z,1.60
2022-07-26T16:32:22.208Z,1.55
2022-07-26T16:34:50.114Z,1.70
2022-07-26T16:37:17.996Z,1.73
2022-07-26T16:39:45.690Z,1.65
2022-07-26T16:42:13.444Z,2.12
2022-07-26T16:44:41.208Z,1.62
2022-07-26T16:47:09.086Z,1.52
2022-07-26T16:49:36.927Z,1.48
2022-07-26T16:52:04.989Z,1.62
2022-07-26T16:54:33.965Z,1.90
2022-07-26T16:57:02.150Z,1.40
2022-07-26T16:59:29.952Z,1.80
2022-07-26T17:01:59.696Z,1.70
2022-07-26T17:04:30.470Z,1.65
2022-07-26T17:07:22.643Z,2.05
2022-07-26T17:09:45.883Z,1.75
2022-07-26T17:12:13.612Z,1.90
2022-07-26T17:14:41.282Z,1.80
2022-07-26T17:17:09.095Z,2.12
2022-07-26T17:19:36.755Z,1.60
2022-07-26T17:22:04.987Z,1.90
2022-07-26T17:24:32.756Z,2.17
2022-07-26T17:27:01.986Z,2.40
2022-07-26T17:29:29.714Z,1.75
2022-07-26T17:31:57.486Z,2.10
2022-07-26T17:34:25.328Z,1.98
2022-07-26T17:37:00.989Z,2.25
2022-07-26T17:39:51.682Z,1.73
2022-07-26T17:42:17.346Z,1.55
2022-07-26T17:44:45.311Z,1.75
2022-07-26T17:47:27.361Z,1.70
2022-07-26T17:49:57.142Z,1.70
2022-07-26T17:52:26.654Z,1.60
2022-07-26T17:54:55.098Z,1.80
2022-07-26T17:57:22.753Z,1.70
2022-07-26T17:59:50.504Z,2.10
2022-07-26T18:02:18.411Z,1.92
2022-07-26T18:04:46.121Z,2.05
2022-07-26T18:07:13.906Z,1.60
2022-07-26T18:09:41.651Z,1.48
2022-07-26T18:12:09.446Z,2.12
2022-07-26T18:14:38.881Z,1.90
2022-07-26T18:17:06.667Z,1.60
2022-07-26T18:19:34.759Z,1.77
2022-07-26T18:22:05.940Z,2.15
2022-07-26T18:24:34.141Z,1.98
2022-07-26T18:27:01.852Z,1.73
2022-07-26T18:29:29.614Z,1.90
2022-07-26T18:32:01.288Z,1.87
2022-07-26T18:34:29.689Z,1.62
2022-07-26T18:36:57.500Z,1.70
2022-07-26T18:39:25.242Z,2.40
2022-07-26T18:42:00.522Z,2.25
2022-07-26T18:44:28.656Z,1.90
2022-07-26T18:46:57.107Z,1.60
2022-07-26T18:49:30.942Z,1.77
2022-07-26T18:52:05.821Z,1.87
2022-07-26T18:54:36.570Z,2.10
2022-07-26T18:57:04.761Z,1.95
2022-07-26T18:59:32.706Z,2.12
2022-07-26T19:02:00.870Z,1.75
2022-07-26T19:04:29.756Z,2.10
2022-07-26T19:06:57.577Z,2.12
2022-07-26T19:09:25.316Z,1.98
2022-07-26T19:11:53.019Z,2.53
2022-07-26T19:14:20.742Z,2.37
2022-07-26T19:16:48.531Z,2.20
2022-07-26T19:19:16.591Z,2.10
2022-07-26T19:21:49.476Z,1.95
2022-07-26T19:24:17.163Z,2.00
2022-07-26T19:26:45.200Z,1.87
2022-07-26T19:29:13.465Z,1.73
2022-07-26T19:31:43.008Z,1.87
2022-07-26T19:34:10.738Z,2.10
2022-07-26T19:36:38.747Z,1.42
2022-07-26T19:39:07.038Z,1.62
2022-07-26T19:41:35.278Z,1.30
2022-07-26T19:44:03.164Z,1.23
2022-07-26T19:46:31.080Z,1.65
2022-07-26T19:48:59.039Z,1.30
2022-07-26T19:51:26.729Z,1.30
2022-07-26T19:53:54.476Z,1.65
2022-07-26T19:56:22.254Z,1.33
2022-07-26T19:58:50.564Z,1.52
2022-07-26T20:01:18.350Z,1.27
2022-07-26T20:03:46.153Z,1.17
2022-07-26T20:06:13.861Z,1.85
2022-07-26T20:08:41.653Z,1.30
2022-07-26T20:11:09.585Z,0.90
2022-07-26T20:13:37.319Z,0.93
2022-07-26T20:16:06.426Z,1.25
2022-07-26T20:18:34.255Z,0.95
2022-07-26T20:21:01.943Z,0.90
2022-07-26T20:23:30.002Z,1.30
2022-07-26T20:25:57.851Z,1.10
2022-07-26T20:28:25.710Z,0.95
2022-07-26T20:30:55.100Z,1.20
2022-07-26T20:33:22.922Z,0.93
2022-07-26T20:35:54.872Z,0.98
2022-07-26T20:38:23.655Z,1.00
2022-07-26T20:40:51.498Z,1.05
2022-07-26T20:43:19.246Z,1.00
2022-07-26T20:45:47.266Z,1.00
2022-07-26T20:48:15.021Z,0.85
2022-07-26T20:50:42.732Z,1.00
2022-07-26T20:53:10.614Z,1.20
2022-07-26T20:55:38.269Z,1.02
2022-07-26T20:58:06.056Z,1.05
2022-07-26T21:00:33.778Z,0.93
2022-07-26T21:03:01.562Z,1.20
2022-07-26T21:05:32.472Z,1.40
2022-07-26T21:08:00.554Z,1.20
2022-07-26T21:10:31.575Z,0.98
2022-07-26T21:13:01.377Z,0.93
2022-07-26T21:15:30.584Z,0.95
2022-07-26T21:17:59.392Z,1.17
2022-07-26T21:20:27.077Z,0.82
2022-07-26T21:23:03.661Z,1.10
2022-07-26T21:25:40.988Z,1.00
2022-07-26T21:28:08.677Z,1.00
2022-07-26T21:30:36.379Z,0.90
2022-07-26T21:33:04.204Z,1.27
2022-07-26T21:35:33.309Z,0.85
2022-07-26T21:38:01.011Z,1.00
2022-07-26T21:40:28.713Z,1.20
2022-07-26T21:42:56.401Z,1.20
2022-07-26T21:45:24.070Z,1.10
2022-07-26T21:47:51.845Z,1.40
2022-07-26T21:50:19.545Z,0.93
2022-07-26T21:52:47.375Z,0.85
2022-07-26T21:55:17.772Z,1.02
2022-07-26T21:57:46.207Z,1.10
2022-07-26T22:00:16.385Z,1.10
2022-07-26T22:02:44.135Z,1.08
2022-07-26T22:05:30.262Z,1.27
2022-07-26T22:07:58.011Z,0.93
2022-07-26T22:10:25.726Z,0.90
2022-07-26T22:12:53.508Z,0.90
2022-07-26T22:15:22.116Z,0.98
2022-07-26T22:17:49.879Z,1.10
2022-07-26T22:20:17.586Z,1.25
2022-07-26T22:22:45.266Z,1.10
2022-07-26T22:25:13.151Z,0.95
2022-07-26T22:27:40.801Z,1.25
2022-07-26T22:30:09.277Z,1.25
2022-07-26T22:32:36.901Z,1.40
2022-07-26T22:35:04.815Z,1.23
2022-07-26T22:37:32.477Z,1.20
2022-07-26T22:40:00.203Z,1.00
2022-07-26T22:42:28.045Z,1.05
2022-07-26T22:44:55.731Z,0.90
2022-07-26T22:47:23.494Z,1.02
2022-07-26T22:49:52.162Z,1.00
2022-07-26T22:52:19.949Z,1.05
2022-07-26T22:54:47.677Z,1.30
2022-07-26T22:57:15.620Z,1.10
2022-07-26T22:59:43.290Z,0.77
2022-07-26T23:02:10.985Z,1.00
2022-07-26T23:04:38.660Z,1.25
2022-07-26T23:07:06.890Z,0.90
2022-07-26T23:09:36.219Z,0.90
2022-07-26T23:12:03.953Z,1.10
2022-07-26T23:14:31.723Z,1.00
2022-07-26T23:16:59.620Z,1.48
2022-07-26T23:19:27.402Z,0.90
2022-07-26T23:21:55.084Z,0.82
2022-07-26T23:24:23.058Z,0.70
2022-07-26T23:26:50.854Z,2.70
2022-07-26T23:29:18.541Z,1.48
2022-07-26T23:31:46.388Z,1.15
2022-07-26T23:34:14.228Z,1.23
2022-07-26T23:36:42.060Z,1.48
2022-07-26T23:39:10.076Z,1.02
2022-07-26T23:41:38.039Z,1.33
2022-07-26T23:44:05.835Z,1.00
2022-07-26T23:46:33.728Z,1.10
2022-07-26T23:49:01.521Z,1.10
2022-07-26T23:51:29.247Z,1.12
2022-07-26T23:53:56.942Z,1.12
2022-07-26T23:56:24.787Z,1.10
2022-07-26T23:58:52.574Z,1.20
